sensor_id;sensor_type;location;lat;lon;timestamp;pressure;altitude;pressure_sealevel;temperature;humidity
61119;BME280;51448;51.660;5.824;2023-03-26T00:01:50;100613.66;;;8.42;100.00
61119;BME280;51448;51.660;5.824;2023-03-26T00:04:20;100625.88;;;8.43;100.00
61119;BME280;51448;51.660;5.824;2023-03-26T00:06:48;100617.06;;;8.46;100.00
61119;BME280;51448;51.660;5.824;2023-03-26T00:09:17;100624.06;;;8.47;100.00
61119;BME280;51448;51.660;5.824;2023-03-26T00:11:44;100624.00;;;8.49;100.00
61119;BME280;51448;51.660;5.824;2023-03-26T00:14:12;100616.97;;;8.51;100.00
61119;BME280;51448;51.660;5.824;2023-03-26T00:16:43;100616.09;;;8.52;100.00
61119;BME280;51448;51.660;5.824;2023-03-26T00:19:11;100618.69;;;8.52;100.00
61119;BME280;51448;51.660;5.824;2023-03-26T00:21:47;100613.38;;;8.55;100.00
61119;BME280;51448;51.660;5.824;2023-03-26T00:24:15;100604.63;;;8.56;100.00
61119;BME280;51448;51.660;5.824;2023-03-26T00:26:43;100608.06;;;8.58;100.00
61119;BME280;51448;51.660;5.824;2023-03-26T00:29:14;100608.06;;;8.58;100.00
61119;BME280;51448;51.660;5.824;2023-03-26T00:31:46;100603.66;;;8.60;100.00
61119;BME280;51448;51.660;5.824;2023-03-26T00:34:13;100606.25;;;8.61;100.00
61119;BME280;51448;51.660;5.824;2023-03-26T00:36:45;100607.09;;;8.62;100.00
61119;BME280;51448;51.660;5.824;2023-03-26T00:39:13;100605.31;;;8.64;100.00
61119;BME280;51448;51.660;5.824;2023-03-26T00:41:41;100604.47;;;8.63;100.00
61119;BME280;51448;51.660;5.824;2023-03-26T00:44:09;100596.53;;;8.65;100.00
61119;BME280;51448;51.660;5.824;2023-03-26T00:46:37;100589.59;;;8.64;100.00
61119;BME280;51448;51.660;5.824;2023-03-26T00:49:05;100592.19;;;8.64;100.00
61119;BME280;51448;51.660;5.824;2023-03-26T00:51:40;100587.81;;;8.64;100.00
61119;BME280;51448;51.660;5.824;2023-03-26T00:54:08;100581.72;;;8.64;100.00
61119;BME280;51448;51.660;5.824;2023-03-26T00:56:35;100579.94;;;8.64;100.00
61119;BME280;51448;51.660;5.824;2023-03-26T00:59:05;100577.31;;;8.64;100.00
61119;BME280;51448;51.660;5.824;2023-03-26T01:01:32;100579.09;;;8.64;100.00
61119;BME280;51448;51.660;5.824;2023-03-26T01:04:21;100577.31;;;8.64;100.00
61119;BME280;51448;51.660;5.824;2023-03-26T01:06:58;100575.66;;;8.62;100.00
61119;BME280;51448;51.660;5.824;2023-03-26T01:09:38;100577.34;;;8.63;100.00
61119;BME280;51448;51.660;5.824;2023-03-26T01:12:12;100573.03;;;8.62;100.00
61119;BME280;51448;51.660;5.824;2023-03-26T01:14:45;100569.56;;;8.60;100.00
61119;BME280;51448;51.660;5.824;2023-03-26T01:17:14;100567.91;;;8.57;100.00
61119;BME280;51448;51.660;5.824;2023-03-26T01:20:20;100559.22;;;8.55;100.00
61119;BME280;51448;51.660;5.824;2023-03-26T01:22:56;100555.84;;;8.49;100.00
61119;BME280;51448;51.660;5.824;2023-03-26T01:25:37;100547.16;;;8.46;100.00
61119;BME280;51448;51.660;5.824;2023-03-26T01:28:10;100539.31;;;8.46;100.00
61119;BME280;51448;51.660;5.824;2023-03-26T01:30:47;100538.56;;;8.41;100.00
61119;BME280;51448;51.660;5.824;2023-03-26T01:36:36;100531.69;;;8.34;100.00
61119;BME280;51448;51.660;5.824;2023-03-26T01:39:18;100524.72;;;8.35;100.00
61119;BME280;51448;51.660;5.824;2023-03-26T01:41:57;100520.38;;;8.32;100.00
61119;BME280;51448;51.660;5.824;2023-03-26T01:47:22;100504.75;;;8.29;100.00
61119;BME280;51448;51.660;5.824;2023-03-26T01:49:50;100504.81;;;8.26;100.00
61119;BME280;51448;51.660;5.824;2023-03-26T01:52:20;100497.88;;;8.25;100.00
61119;BME280;51448;51.660;5.824;2023-03-26T01:54:53;100502.34;;;8.20;100.00
61119;BME280;51448;51.660;5.824;2023-03-26T01:57:26;100499.81;;;8.17;100.00
61119;BME280;51448;51.660;5.824;2023-03-26T02:00:05;100492.00;;;8.14;100.00
61119;BME280;51448;51.660;5.824;2023-03-26T02:02:57;100499.97;;;8.09;100.00
61119;BME280;51448;51.660;5.824;2023-03-26T02:08:44;100481.81;;;8.01;100.00
61119;BME280;51448;51.660;5.824;2023-03-26T02:11:18;100481.94;;;7.97;100.00
61119;BME280;51448;51.660;5.824;2023-03-26T02:13:49;100488.13;;;7.93;100.00
61119;BME280;51448;51.660;5.824;2023-03-26T02:16:19;100475.06;;;7.91;100.00
61119;BME280;51448;51.660;5.824;2023-03-26T02:18:48;100472.50;;;7.90;100.00
61119;BME280;51448;51.660;5.824;2023-03-26T02:21:22;100469.09;;;7.86;100.00
61119;BME280;51448;51.660;5.824;2023-03-26T02:23:54;100464.81;;;7.82;100.00
61119;BME280;51448;51.660;5.824;2023-03-26T02:26:34;100464.03;;;7.77;100.00
61119;BME280;51448;51.660;5.824;2023-03-26T02:29:10;100458.91;;;7.74;100.00
61119;BME280;51448;51.660;5.824;2023-03-26T02:31:42;100456.31;;;7.71;100.00
61119;BME280;51448;51.660;5.824;2023-03-26T02:34:10;100452.00;;;7.70;100.00
61119;BME280;51448;51.660;5.824;2023-03-26T02:36:39;100452.94;;;7.67;100.00
61119;BME280;51448;51.660;5.824;2023-03-26T02:39:10;100446.88;;;7.65;100.00
61119;BME280;51448;51.660;5.824;2023-03-26T02:41:43;100438.13;;;7.64;100.00
61119;BME280;51448;51.660;5.824;2023-03-26T02:44:11;100427.66;;;7.64;100.00
61119;BME280;51448;51.660;5.824;2023-03-26T02:47:02;100433.81;;;7.63;100.00
61119;BME280;51448;51.660;5.824;2023-03-26T02:49:48;100430.38;;;7.61;100.00
61119;BME280;51448;51.660;5.824;2023-03-26T02:52:36;100424.31;;;7.59;100.00
61119;BME280;51448;51.660;5.824;2023-03-26T02:55:03;100424.31;;;7.59;100.00
61119;BME280;51448;51.660;5.824;2023-03-26T02:57:32;100434.81;;;7.56;100.00
61119;BME280;51448;51.660;5.824;2023-03-26T03:00:14;100422.69;;;7.54;100.00
61119;BME280;51448;51.660;5.824;2023-03-26T03:03:02;100417.53;;;7.51;100.00
61119;BME280;51448;51.660;5.824;2023-03-26T03:05:31;100417.56;;;7.49;100.00
61119;BME280;51448;51.660;5.824;2023-03-26T03:08:26;100415.00;;;7.46;100.00
61119;BME280;51448;51.660;5.824;2023-03-26T03:11:18;100411.53;;;7.44;100.00
61119;BME280;51448;51.660;5.824;2023-03-26T03:13:52;100409.81;;;7.44;100.00
61119;BME280;51448;51.660;5.824;2023-03-26T03:16:28;100408.91;;;7.45;100.00
61119;BME280;51448;51.660;5.824;2023-03-26T03:18:58;100403.69;;;7.45;100.00
61119;BME280;51448;51.660;5.824;2023-03-26T03:21:34;100397.56;;;7.47;100.00
61119;BME280;51448;51.660;5.824;2023-03-26T03:24:02;100399.28;;;7.46;100.00
61119;BME280;51448;51.660;5.824;2023-03-26T03:26:34;100394.06;;;7.46;100.00
61119;BME280;51448;51.660;5.824;2023-03-26T03:29:14;100385.34;;;7.45;100.00
61119;BME280;51448;51.660;5.824;2023-03-26T03:31:42;100392.34;;;7.45;100.00
61119;BME280;51448;51.660;5.824;2023-03-26T03:34:22;100379.28;;;7.43;100.00
61119;BME280;51448;51.660;5.824;2023-03-26T03:36:51;100379.31;;;7.42;100.00
61119;BME280;51448;51.660;5.824;2023-03-26T03:39:31;100385.47;;;7.41;100.00
61119;BME280;51448;51.660;5.824;2023-03-26T03:41:59;100374.19;;;7.39;100.00
61119;BME280;51448;51.660;5.824;2023-03-26T03:44:26;100376.78;;;7.39;100.00
61119;BME280;51448;51.660;5.824;2023-03-26T03:46:54;100369.81;;;7.38;100.00
61119;BME280;51448;51.660;5.824;2023-03-26T03:49:23;100367.25;;;7.36;100.00
61119;BME280;51448;51.660;5.824;2023-03-26T03:51:50;100360.31;;;7.34;100.00
61119;BME280;51448;51.660;5.824;2023-03-26T03:54:33;100359.50;;;7.32;100.00
61119;BME280;51448;51.660;5.824;2023-03-26T03:57:21;100354.34;;;7.29;100.00
61119;BME280;51448;51.660;5.824;2023-03-26T03:59:57;100354.34;;;7.29;100.00
61119;BME280;51448;51.660;5.824;2023-03-26T04:02:26;100350.88;;;7.28;100.00
61119;BME280;51448;51.660;5.824;2023-03-26T04:05:04;100353.53;;;7.27;100.00
61119;BME280;51448;51.660;5.824;2023-03-26T04:07:33;100350.94;;;7.25;100.00
61119;BME280;51448;51.660;5.824;2023-03-26T04:10:06;100342.22;;;7.24;100.00
61119;BME280;51448;51.660;5.824;2023-03-26T04:12:54;100339.63;;;7.23;100.00
61119;BME280;51448;51.660;5.824;2023-03-26T04:15:38;100338.81;;;7.21;100.00
61119;BME280;51448;51.660;5.824;2023-03-26T04:18:07;100330.13;;;7.20;100.00
61119;BME280;51448;51.660;5.824;2023-03-26T04:20:43;100330.97;;;7.21;100.00
61119;BME280;51448;51.660;5.824;2023-03-26T04:23:18;100331.81;;;7.21;100.00
61119;BME280;51448;51.660;5.824;2023-03-26T04:25:50;100327.53;;;7.17;100.00
61119;BME280;51448;51.660;5.824;2023-03-26T04:28:49;100324.03;;;7.20;100.00
61119;BME280;51448;51.660;5.824;2023-03-26T04:31:26;100321.34;;;7.21;100.00
61119;BME280;51448;51.660;5.824;2023-03-26T04:34:06;100317.84;;;7.22;100.00
61119;BME280;51448;51.660;5.824;2023-03-26T04:36:51;100323.16;;;7.19;100.00
61119;BME280;51448;51.660;5.824;2023-03-26T04:39:24;100310.97;;;7.18;100.00
61119;BME280;51448;51.660;5.824;2023-03-26T04:42:13;100309.25;;;7.17;100.00
61119;BME280;51448;51.660;5.824;2023-03-26T04:44:56;100304.06;;;7.16;100.00
61119;BME280;51448;51.660;5.824;2023-03-26T04:47:26;100304.91;;;7.16;100.00
61119;BME280;51448;51.660;5.824;2023-03-26T04:49:55;100293.53;;;7.17;100.00
61119;BME280;51448;51.660;5.824;2023-03-26T04:52:23;100296.13;;;7.19;100.00
61119;BME280;51448;51.660;5.824;2023-03-26T04:54:53;100285.66;;;7.20;100.00
61119;BME280;51448;51.660;5.824;2023-03-26T04:57:28;100276.00;;;7.22;100.00
61119;BME280;51448;51.660;5.824;2023-03-26T05:00:13;100270.81;;;7.21;100.00
61119;BME280;51448;51.660;5.824;2023-03-26T05:02:47;100271.66;;;7.21;100.00
61119;BME280;51448;51.660;5.824;2023-03-26T05:05:21;100262.09;;;7.20;100.00
61119;BME280;51448;51.660;5.824;2023-03-26T05:07:49;100258.59;;;7.21;100.00
61119;BME280;51448;51.660;5.824;2023-03-26T05:10:19;100251.63;;;7.22;100.00
61119;BME280;51448;51.660;5.824;2023-03-26T05:12:56;100247.28;;;7.19;100.00
61119;BME280;51448;51.660;5.824;2023-03-26T05:15:35;100248.22;;;7.18;100.00
61119;BME280;51448;51.660;5.824;2023-03-26T05:18:09;100237.75;;;7.18;100.00
61119;BME280;51448;51.660;5.824;2023-03-26T05:20:40;100239.50;;;7.18;100.00
61119;BME280;51448;51.660;5.824;2023-03-26T05:23:09;100234.22;;;7.19;100.00
61119;BME280;51448;51.660;5.824;2023-03-26T05:25:41;100224.63;;;7.20;100.00
61119;BME280;51448;51.660;5.824;2023-03-26T05:28:18;100221.09;;;7.22;100.00
61119;BME280;51448;51.660;5.824;2023-03-26T05:30:56;100223.66;;;7.24;100.00
61119;BME280;51448;51.660;5.824;2023-03-26T05:33:27;100213.16;;;7.25;100.00
61119;BME280;51448;51.660;5.824;2023-03-26T05:36:15;100216.66;;;7.26;100.00
61119;BME280;51448;51.660;5.824;2023-03-26T05:38:47;100208.81;;;7.24;100.00
61119;BME280;51448;51.660;5.824;2023-03-26T05:41:39;100201.81;;;7.27;100.00
61119;BME280;51448;51.660;5.824;2023-03-26T05:44:07;100203.47;;;7.29;100.00
61119;BME280;51448;51.660;5.824;2023-03-26T05:46:35;100194.81;;;7.27;100.00
61119;BME280;51448;51.660;5.824;2023-03-26T05:49:03;100201.84;;;7.25;100.00
61119;BME280;51448;51.660;5.824;2023-03-26T05:51:33;100193.19;;;7.21;100.00
61119;BME280;51448;51.660;5.824;2023-03-26T05:54:24;100181.91;;;7.19;100.00
61119;BME280;51448;51.660;5.824;2023-03-26T05:57:07;100185.44;;;7.18;100.00
61119;BME280;51448;51.660;5.824;2023-03-26T05:59:54;100184.59;;;7.18;100.00
61119;BME280;51448;51.660;5.824;2023-03-26T06:02:43;100178.47;;;7.17;100.00
61119;BME280;51448;51.660;5.824;2023-03-26T06:05:32;100188.03;;;7.20;100.00
61119;BME280;51448;51.660;5.824;2023-03-26T06:08:13;100170.53;;;7.22;100.00
61119;BME280;51448;51.660;5.824;2023-03-26T06:10:48;100169.66;;;7.21;100.00
61119;BME280;51448;51.660;5.824;2023-03-26T06:13:17;100173.19;;;7.20;100.00
61119;BME280;51448;51.660;5.824;2023-03-26T06:15:47;100166.28;;;7.18;100.00
61119;BME280;51448;51.660;5.824;2023-03-26T06:18:29;100171.59;;;7.13;100.00
61119;BME280;51448;51.660;5.824;2023-03-26T06:21:15;100167.16;;;7.17;100.00
61119;BME280;51448;51.660;5.824;2023-03-26T06:23:48;100168.78;;;7.22;100.00
61119;BME280;51448;51.660;5.824;2023-03-26T06:26:46;100159.09;;;7.26;100.00
61119;BME280;51448;51.660;5.824;2023-03-26T06:29:20;100157.25;;;7.30;100.00
61119;BME280;51448;51.660;5.824;2023-03-26T06:32:01;100143.25;;;7.32;100.00
61119;BME280;51448;51.660;5.824;2023-03-26T06:34:49;100150.16;;;7.35;100.00
61119;BME280;51448;51.660;5.824;2023-03-26T06:37:17;100148.34;;;7.37;100.00
61119;BME280;51448;51.660;5.824;2023-03-26T06:39:46;100146.63;;;7.36;100.00
61119;BME280;51448;51.660;5.824;2023-03-26T06:42:16;100142.31;;;7.35;100.00
61119;BME280;51448;51.660;5.824;2023-03-26T06:45:25;100138.84;;;7.34;100.00
61119;BME280;51448;51.660;5.824;2023-03-26T06:48:26;100140.50;;;7.37;100.00
61119;BME280;51448;51.660;5.824;2023-03-26T06:51:17;100143.03;;;7.40;100.00
61119;BME280;51448;51.660;5.824;2023-03-26T06:54:03;100147.34;;;7.42;100.00
61119;BME280;51448;51.660;5.824;2023-03-26T06:56:49;100139.44;;;7.44;100.00
61119;BME280;51448;51.660;5.824;2023-03-26T06:59:35;100143.78;;;7.45;100.00
61119;BME280;51448;51.660;5.824;2023-03-26T07:02:32;100143.69;;;7.48;100.00
61119;BME280;51448;51.660;5.824;2023-03-26T07:05:18;100141.00;;;7.51;100.00
61119;BME280;51448;51.660;5.824;2023-03-26T07:08:07;100139.19;;;7.53;100.00
61119;BME280;51448;51.660;5.824;2023-03-26T07:10:53;100144.44;;;7.53;100.00
61119;BME280;51448;51.660;5.824;2023-03-26T07:13:40;100147.88;;;7.55;100.00
61119;BME280;51448;51.660;5.824;2023-03-26T07:16:45;100147.88;;;7.55;100.00
61119;BME280;51448;51.660;5.824;2023-03-26T07:19:30;100143.50;;;7.56;100.00
61119;BME280;51448;51.660;5.824;2023-03-26T07:21:58;100141.72;;;7.56;100.00
61119;BME280;51448;51.660;5.824;2023-03-26T07:24:59;100143.59;;;7.53;100.00
61119;BME280;51448;51.660;5.824;2023-03-26T07:28:02;100145.41;;;7.49;100.00
61119;BME280;51448;51.660;5.824;2023-03-26T07:34:52;100136.59;;;7.53;100.00
61119;BME280;51448;51.660;5.824;2023-03-26T07:41:29;100130.38;;;7.57;100.00
61119;BME280;51448;51.660;5.824;2023-03-26T07:48:00;100124.13;;;7.63;100.00
61119;BME280;51448;51.660;5.824;2023-03-26T07:50:57;100123.16;;;7.65;100.00
61119;BME280;51448;51.660;5.824;2023-03-26T07:53:48;100123.97;;;7.69;100.00
61119;BME280;51448;51.660;5.824;2023-03-26T07:56:53;100116.91;;;7.71;100.00
61119;BME280;51448;51.660;5.824;2023-03-26T08:03:56;100115.06;;;7.75;100.00
61119;BME280;51448;51.660;5.824;2023-03-26T08:06:35;100115.16;;;7.72;100.00
61119;BME280;51448;51.660;5.824;2023-03-26T08:15:31;100113.97;;;7.83;100.00
61119;BME280;51448;51.660;5.824;2023-03-26T08:19:08;100116.47;;;7.86;100.00
61119;BME280;51448;51.660;5.824;2023-03-26T08:24:42;100108.59;;;7.88;100.00
61119;BME280;51448;51.660;5.824;2023-03-26T08:28:21;100110.28;;;7.89;100.00
61119;BME280;51448;51.660;5.824;2023-03-26T08:30:31;100105.03;;;7.89;100.00
61119;BME280;51448;51.660;5.824;2023-03-26T08:33:13;100104.88;;;7.95;100.00
61119;BME280;51448;51.660;5.824;2023-03-26T08:35:44;100107.38;;;8.00;100.00
61119;BME280;51448;51.660;5.824;2023-03-26T08:38:17;100105.47;;;8.05;100.00
61119;BME280;51448;51.660;5.824;2023-03-26T09:37:32;100077.81;;;9.07;100.00
61119;BME280;51448;51.660;5.824;2023-03-26T10:15:31;100073.00;;;9.20;100.00
61119;BME280;51448;51.660;5.824;2023-03-26T10:24:18;100078.03;;;9.26;100.00
61119;BME280;51448;51.660;5.824;2023-03-26T10:34:00;100080.53;;;9.31;100.00
61119;BME280;51448;51.660;5.824;2023-03-26T10:37:17;100077.81;;;9.33;100.00
61119;BME280;51448;51.660;5.824;2023-03-26T10:52:22;100080.94;;;9.44;100.00
61119;BME280;51448;51.660;5.824;2023-03-26T10:54:56;100079.97;;;9.46;100.00
61119;BME280;51448;51.660;5.824;2023-03-26T10:57:55;100086.19;;;9.44;100.00
61119;BME280;51448;51.660;5.824;2023-03-26T11:00:27;100085.38;;;9.42;100.00
61119;BME280;51448;51.660;5.824;2023-03-26T11:03:10;100087.09;;;9.43;100.00
61119;BME280;51448;51.660;5.824;2023-03-26T11:05:53;100086.28;;;9.41;100.00
61119;BME280;51448;51.660;5.824;2023-03-26T11:14:34;100098.00;;;9.31;100.00
61119;BME280;51448;51.660;5.824;2023-03-26T11:23:13;100099.03;;;9.26;100.00
61119;BME280;51448;51.660;5.824;2023-03-26T11:34:53;100104.56;;;9.19;100.00
61119;BME280;51448;51.660;5.824;2023-03-26T11:37:37;100097.53;;;9.19;100.00
61119;BME280;51448;51.660;5.824;2023-03-26T11:40:13;100106.22;;;9.21;100.00
61119;BME280;51448;51.660;5.824;2023-03-26T11:42:50;100103.53;;;9.23;100.00
61119;BME280;51448;51.660;5.824;2023-03-26T11:45:26;100108.78;;;9.23;100.00
61119;BME280;51448;51.660;5.824;2023-03-26T11:48:17;100111.47;;;9.21;100.00
61119;BME280;51448;51.660;5.824;2023-03-26T11:50:57;100111.47;;;9.21;100.00
61119;BME280;51448;51.660;5.824;2023-03-26T11:53:34;100111.34;;;9.24;100.00
61119;BME280;51448;51.660;5.824;2023-03-26T11:56:14;100115.56;;;9.29;100.00
61119;BME280;51448;51.660;5.824;2023-03-26T11:59:04;100109.53;;;9.26;100.00
61119;BME280;51448;51.660;5.824;2023-03-26T12:01:49;100113.06;;;9.25;100.00
61119;BME280;51448;51.660;5.824;2023-03-26T12:04:38;100117.31;;;9.30;100.00
61119;BME280;51448;51.660;5.824;2023-03-26T12:07:22;100116.16;;;9.37;100.00
61119;BME280;51448;51.660;5.824;2023-03-26T12:10:02;100123.16;;;9.38;100.00
61119;BME280;51448;51.660;5.824;2023-03-26T12:12:46;100116.28;;;9.34;100.00
61119;BME280;51448;51.660;5.824;2023-03-26T12:15:16;100121.53;;;9.34;100.00
61119;BME280;51448;51.660;5.824;2023-03-26T12:17:50;100124.97;;;9.36;100.00
61119;BME280;51448;51.660;5.824;2023-03-26T12:22:55;100120.34;;;9.42;100.00
61119;BME280;51448;51.660;5.824;2023-03-26T12:30:58;100129.03;;;9.44;100.00
61119;BME280;51448;51.660;5.824;2023-03-26T12:33:30;100117.47;;;9.50;100.00
61119;BME280;51448;51.660;5.824;2023-03-26T12:36:34;100123.34;;;9.57;100.00
61119;BME280;51448;51.660;5.824;2023-03-26T12:39:40;100123.31;;;9.58;100.00
61119;BME280;51448;51.660;5.824;2023-03-26T12:42:32;100125.81;;;9.61;100.00
61119;BME280;51448;51.660;5.824;2023-03-26T12:45:36;100123.69;;;9.73;100.00
61119;BME280;51448;51.660;5.824;2023-03-26T12:48:10;100125.28;;;9.77;100.00
61119;BME280;51448;51.660;5.824;2023-03-26T12:51:16;100135.56;;;9.83;100.00
61119;BME280;51448;51.660;5.824;2023-03-26T12:56:42;100137.16;;;9.87;100.00
61119;BME280;51448;51.660;5.824;2023-03-26T13:09:00;100149.50;;;9.85;100.00
61119;BME280;51448;51.660;5.824;2023-03-26T13:12:04;100162.09;;;9.75;100.00
61119;BME280;51448;51.660;5.824;2023-03-26T13:15:04;100153.75;;;9.64;100.00
61119;BME280;51448;51.660;5.824;2023-03-26T13:26:26;100164.91;;;9.19;100.00
61119;BME280;51448;51.660;5.824;2023-03-26T13:29:37;100163.31;;;9.13;100.00
61119;BME280;51448;51.660;5.824;2023-03-26T13:32:36;100174.72;;;9.12;100.00
61119;BME280;51448;51.660;5.824;2023-03-26T13:35:58;100171.41;;;9.07;100.00
61119;BME280;51448;51.660;5.824;2023-03-26T13:39:04;100165.38;;;9.03;100.00
61119;BME280;51448;51.660;5.824;2023-03-26T13:47:35;100179.22;;;9.09;100.00
61119;BME280;51448;51.660;5.824;2023-03-26T13:50:22;100177.22;;;9.17;100.00
61119;BME280;51448;51.660;5.824;2023-03-26T13:53:13;100177.09;;;9.20;100.00
61119;BME280;51448;51.660;5.824;2023-03-26T13:55:51;100178.88;;;9.19;100.00
61119;BME280;51448;51.660;5.824;2023-03-26T13:58:37;100181.56;;;9.16;100.00
61119;BME280;51448;51.660;5.824;2023-03-26T14:01:20;100189.72;;;9.09;100.00
61119;BME280;51448;51.660;5.824;2023-03-26T14:04:17;100183.75;;;9.03;100.00
61119;BME280;51448;51.660;5.824;2023-03-26T14:07:19;100191.94;;;8.94;100.00
61119;BME280;51448;51.660;5.824;2023-03-26T14:09:57;100196.47;;;8.88;100.00
61119;BME280;51448;51.660;5.824;2023-03-26T14:12:57;100208.03;;;8.82;100.00
61119;BME280;51448;51.660;5.824;2023-03-26T14:16:24;100213.47;;;8.76;100.00
61119;BME280;51448;51.660;5.824;2023-03-26T14:19:33;100219.13;;;8.62;100.00
61119;BME280;51448;51.660;5.824;2023-03-26T14:22:36;100223.81;;;8.51;100.00
61119;BME280;51448;51.660;5.824;2023-03-26T14:31:34;100233.25;;;8.25;100.00
61119;BME280;51448;51.660;5.824;2023-03-26T14:34:19;100229.03;;;8.19;100.00
61119;BME280;51448;51.660;5.824;2023-03-26T14:54:56;100264.72;;;8.23;100.00
61119;BME280;51448;51.660;5.824;2023-03-26T15:01:36;100271.56;;;8.29;100.00
61119;BME280;51448;51.660;5.824;2023-03-26T15:04:14;100268.84;;;8.32;100.00
61119;BME280;51448;51.660;5.824;2023-03-26T15:13:38;100285.91;;;8.49;100.00
61119;BME280;51448;51.660;5.824;2023-03-26T15:23:27;100298.91;;;8.53;100.00
61119;BME280;51448;51.660;5.824;2023-03-26T15:46:56;100345.44;;;8.43;100.00
61119;BME280;51448;51.660;5.824;2023-03-26T15:49:42;100358.59;;;8.40;100.00
61119;BME280;51448;51.660;5.824;2023-03-26T15:52:27;100362.19;;;8.36;100.00
61119;BME280;51448;51.660;5.824;2023-03-26T15:57:55;100374.56;;;8.31;96.85
61119;BME280;51448;51.660;5.824;2023-03-26T16:00:34;100382.50;;;8.28;97.86
61119;BME280;51448;51.660;5.824;2023-03-26T16:03:28;100379.84;;;8.30;97.55
61119;BME280;51448;51.660;5.824;2023-03-26T16:06:28;100375.53;;;8.29;97.14
61119;BME280;51448;51.660;5.824;2023-03-26T16:11:55;100393.88;;;8.29;96.45
61119;BME280;51448;51.660;5.824;2023-03-26T16:17:11;100403.47;;;8.28;96.75
61119;BME280;51448;51.660;5.824;2023-03-26T16:20:23;100406.91;;;8.30;96.41
61119;BME280;51448;51.660;5.824;2023-03-26T16:23:00;100422.63;;;8.30;95.30
61119;BME280;51448;51.660;5.824;2023-03-26T16:25:51;100431.38;;;8.31;93.26
61119;BME280;51448;51.660;5.824;2023-03-26T16:28:29;100428.81;;;8.27;91.50
61119;BME280;51448;51.660;5.824;2023-03-26T16:31:35;100443.78;;;8.22;91.35
61119;BME280;51448;51.660;5.824;2023-03-26T16:36:44;100468.44;;;8.14;89.60
61119;BME280;51448;51.660;5.824;2023-03-26T16:39:18;100459.00;;;8.06;88.19
61119;BME280;51448;51.660;5.824;2023-03-26T16:42:18;100471.34;;;8.01;88.82
61119;BME280;51448;51.660;5.824;2023-03-26T16:45:37;100472.41;;;7.93;89.52
61119;BME280;51448;51.660;5.824;2023-03-26T16:57:35;100501.59;;;7.76;91.00
61119;BME280;51448;51.660;5.824;2023-03-26T17:00:47;100516.50;;;7.72;85.66
61119;BME280;51448;51.660;5.824;2023-03-26T17:03:40;100521.84;;;7.68;84.12
61119;BME280;51448;51.660;5.824;2023-03-26T17:14:54;100551.06;;;7.46;85.88
61119;BME280;51448;51.660;5.824;2023-03-26T17:17:59;100559.88;;;7.42;85.20
61119;BME280;51448;51.660;5.824;2023-03-26T17:24:22;100573.19;;;7.30;85.28
61119;BME280;51448;51.660;5.824;2023-03-26T17:27:46;100579.34;;;7.25;84.92
61119;BME280;51448;51.660;5.824;2023-03-26T17:35:50;100597.78;;;7.19;81.97
61119;BME280;51448;51.660;5.824;2023-03-26T17:41:52;100612.72;;;7.13;81.71
61119;BME280;51448;51.660;5.824;2023-03-26T17:44:34;100618.06;;;7.07;82.36
61119;BME280;51448;51.660;5.824;2023-03-26T17:47:12;100627.69;;;7.04;80.79
61119;BME280;51448;51.660;5.824;2023-03-26T17:49:49;100621.69;;;6.99;80.66
61119;BME280;51448;51.660;5.824;2023-03-26T17:52:25;100634.78;;;6.98;78.91
61119;BME280;51448;51.660;5.824;2023-03-26T17:54:59;100640.03;;;6.96;78.86
61119;BME280;51448;51.660;5.824;2023-03-26T17:57:34;100641.78;;;6.96;77.75
61119;BME280;51448;51.660;5.824;2023-03-26T18:00:30;100646.22;;;6.91;78.85
61119;BME280;51448;51.660;5.824;2023-03-26T18:03:34;100653.22;;;6.89;79.96
61119;BME280;51448;51.660;5.824;2023-03-26T18:06:10;100661.09;;;6.87;80.08
61119;BME280;51448;51.660;5.824;2023-03-26T18:08:57;100663.72;;;6.85;80.34
61119;BME280;51448;51.660;5.824;2023-03-26T18:12:35;100675.94;;;6.85;80.36
61119;BME280;51448;51.660;5.824;2023-03-26T18:18:35;100692.56;;;6.81;81.11
61119;BME280;51448;51.660;5.824;2023-03-26T18:21:12;100705.66;;;6.79;81.59
61119;BME280;51448;51.660;5.824;2023-03-26T18:24:07;100706.50;;;6.80;81.09
61119;BME280;51448;51.660;5.824;2023-03-26T18:26:44;100717.03;;;6.77;81.27
61119;BME280;51448;51.660;5.824;2023-03-26T18:31:48;100724.03;;;6.73;77.46
61119;BME280;51448;51.660;5.824;2023-03-26T18:34:20;100729.34;;;6.69;78.36
61119;BME280;51448;51.660;5.824;2023-03-26T18:39:30;100735.50;;;6.63;76.70
61119;BME280;51448;51.660;5.824;2023-03-26T18:41:59;100747.72;;;6.62;77.57
61119;BME280;51448;51.660;5.824;2023-03-26T18:44:27;100748.63;;;6.58;79.07
61119;BME280;51448;51.660;5.824;2023-03-26T18:46:57;100750.38;;;6.58;78.93
61119;BME280;51448;51.660;5.824;2023-03-26T18:49:31;100756.50;;;6.55;80.04
61119;BME280;51448;51.660;5.824;2023-03-26T18:51:59;100765.25;;;6.53;79.54
61119;BME280;51448;51.660;5.824;2023-03-26T18:54:32;100764.41;;;6.51;79.44
61119;BME280;51448;51.660;5.824;2023-03-26T18:57:10;100765.31;;;6.47;78.33
61119;BME280;51448;51.660;5.824;2023-03-26T18:59:51;100775.78;;;6.43;78.22
61119;BME280;51448;51.660;5.824;2023-03-26T19:02:23;100785.44;;;6.38;77.42
61119;BME280;51448;51.660;5.824;2023-03-26T19:04:52;100790.69;;;6.35;77.35
61119;BME280;51448;51.660;5.824;2023-03-26T19:07:24;100792.50;;;6.30;77.77
61119;BME280;51448;51.660;5.824;2023-03-26T19:09:53;100795.13;;;6.27;78.29
61119;BME280;51448;51.660;5.824;2023-03-26T19:12:29;100801.25;;;6.28;77.07
61119;BME280;51448;51.660;5.824;2023-03-26T19:15:15;100814.34;;;6.23;77.57
61119;BME280;51448;51.660;5.824;2023-03-26T19:17:49;100825.69;;;6.22;76.79
61119;BME280;51448;51.660;5.824;2023-03-26T19:20:25;100825.75;;;6.17;77.94
61119;BME280;51448;51.660;5.824;2023-03-26T19:22:56;100837.91;;;6.17;77.73
61119;BME280;51448;51.660;5.824;2023-03-26T19:25:32;100836.19;;;6.14;76.71